sensor_id;sensor_type;location;lat;lon;timestamp;P1;durP1;ratioP1;P2;durP2;ratioP2
20229;SDS011;12195;55.790;37.572;2023-07-13T00:00:22;1.80;;;1.22;;
20229;SDS011;12195;55.790;37.572;2023-07-13T00:03:06;2.30;;;1.20;;
20229;SDS011;12195;55.790;37.572;2023-07-13T00:05:40;2.47;;;1.40;;
20229;SDS011;12195;55.790;37.572;2023-07-13T00:08:13;3.95;;;1.32;;
20229;SDS011;12195;55.790;37.572;2023-07-13T00:10:56;3.12;;;1.60;;
20229;SDS011;12195;55.790;37.572;2023-07-13T00:13:29;5.10;;;2.10;;
20229;SDS011;12195;55.790;37.572;2023-07-13T00:16:14;3.25;;;1.55;;
20229;SDS011;12195;55.790;37.572;2023-07-13T00:18:47;3.02;;;1.40;;
20229;SDS011;12195;55.790;37.572;2023-07-13T00:21:29;2.05;;;1.30;;
20229;SDS011;12195;55.790;37.572;2023-07-13T00:24:02;2.65;;;2.05;;
20229;SDS011;12195;55.790;37.572;2023-07-13T00:26:35;1.82;;;1.40;;
20229;SDS011;12195;55.790;37.572;2023-07-13T00:29:17;2.50;;;1.25;;
20229;SDS011;12195;55.790;37.572;2023-07-13T00:32:02;1.70;;;1.30;;
20229;SDS011;12195;55.790;37.572;2023-07-13T00:34:35;2.90;;;1.42;;
20229;SDS011;12195;55.790;37.572;2023-07-13T00:37:09;2.23;;;1.33;;
20229;SDS011;12195;55.790;37.572;2023-07-13T00:39:53;2.40;;;1.80;;
20229;SDS011;12195;55.790;37.572;2023-07-13T00:42:26;2.20;;;1.40;;
20229;SDS011;12195;55.790;37.572;2023-07-13T00:47:47;1.65;;;1.32;;
20229;SDS011;12195;55.790;37.572;2023-07-13T00:50:30;3.58;;;1.70;;
20229;SDS011;12195;55.790;37.572;2023-07-13T00:53:02;6.45;;;1.47;;
20229;SDS011;12195;55.790;37.572;2023-07-13T00:55:47;4.12;;;1.57;;
20229;SDS011;12195;55.790;37.572;2023-07-13T00:58:33;1.62;;;1.40;;
20229;SDS011;12195;55.790;37.572;2023-07-13T01:01:18;5.25;;;1.42;;
20229;SDS011;12195;55.790;37.572;2023-07-13T01:04:03;2.22;;;1.70;;
20229;SDS011;12195;55.790;37.572;2023-07-13T01:06:37;2.47;;;1.50;;
20229;SDS011;12195;55.790;37.572;2023-07-13T01:09:11;4.65;;;1.62;;
20229;SDS011;12195;55.790;37.572;2023-07-13T01:11:43;4.53;;;1.70;;
20229;SDS011;12195;55.790;37.572;2023-07-13T01:14:16;1.95;;;1.17;;
20229;SDS011;12195;55.790;37.572;2023-07-13T01:17:00;3.08;;;1.75;;
20229;SDS011;12195;55.790;37.572;2023-07-13T01:19:40;3.22;;;1.70;;
20229;SDS011;12195;55.790;37.572;2023-07-13T01:22:24;1.85;;;1.50;;
20229;SDS011;12195;55.790;37.572;2023-07-13T01:24:59;3.12;;;1.55;;
20229;SDS011;12195;55.790;37.572;2023-07-13T01:27:41;2.40;;;1.80;;
20229;SDS011;12195;55.790;37.572;2023-07-13T01:30:25;1.62;;;1.45;;
20229;SDS011;12195;55.790;37.572;2023-07-13T01:33:08;4.15;;;1.52;;
20229;SDS011;12195;55.790;37.572;2023-07-13T01:35:41;3.60;;;1.40;;
20229;SDS011;12195;55.790;37.572;2023-07-13T01:38:24;2.55;;;1.85;;
20229;SDS011;12195;55.790;37.572;2023-07-13T01:41:10;2.50;;;1.60;;
20229;SDS011;12195;55.790;37.572;2023-07-13T01:43:42;2.30;;;1.67;;
20229;SDS011;12195;55.790;37.572;2023-07-13T01:46:26;2.65;;;1.50;;
20229;SDS011;12195;55.790;37.572;2023-07-13T01:48:59;2.65;;;1.52;;
20229;SDS011;12195;55.790;37.572;2023-07-13T01:51:44;3.40;;;1.40;;
20229;SDS011;12195;55.790;37.572;2023-07-13T01:54:16;3.05;;;1.50;;
20229;SDS011;12195;55.790;37.572;2023-07-13T01:56:59;4.95;;;2.20;;
20229;SDS011;12195;55.790;37.572;2023-07-13T01:59:32;1.62;;;1.27;;
20229;SDS011;12195;55.790;37.572;2023-07-13T02:02:14;1.60;;;1.50;;
20229;SDS011;12195;55.790;37.572;2023-07-13T02:04:46;2.67;;;1.55;;
20229;SDS011;12195;55.790;37.572;2023-07-13T02:07:31;7.20;;;1.87;;
20229;SDS011;12195;55.790;37.572;2023-07-13T02:10:06;1.52;;;1.30;;
20229;SDS011;12195;55.790;37.572;2023-07-13T02:12:50;3.42;;;1.60;;
20229;SDS011;12195;55.790;37.572;2023-07-13T02:15:22;3.55;;;1.52;;
20229;SDS011;12195;55.790;37.572;2023-07-13T02:18:05;1.98;;;1.70;;
20229;SDS011;12195;55.790;37.572;2023-07-13T02:20:40;1.82;;;1.52;;
20229;SDS011;12195;55.790;37.572;2023-07-13T02:23:25;2.40;;;1.70;;
20229;SDS011;12195;55.790;37.572;2023-07-13T02:25:58;2.50;;;1.75;;
20229;SDS011;12195;55.790;37.572;2023-07-13T02:28:44;4.53;;;1.90;;
20229;SDS011;12195;55.790;37.572;2023-07-13T02:31:17;3.30;;;1.77;;
20229;SDS011;12195;55.790;37.572;2023-07-13T02:33:59;5.58;;;1.80;;
20229;SDS011;12195;55.790;37.572;2023-07-13T02:36:32;7.47;;;2.55;;
20229;SDS011;12195;55.790;37.572;2023-07-13T02:39:14;8.75;;;2.20;;
20229;SDS011;12195;55.790;37.572;2023-07-13T02:41:47;7.30;;;2.17;;
20229;SDS011;12195;55.790;37.572;2023-07-13T02:44:29;2.35;;;1.62;;
20229;SDS011;12195;55.790;37.572;2023-07-13T02:47:02;2.65;;;1.90;;
20229;SDS011;12195;55.790;37.572;2023-07-13T02:49:46;4.42;;;1.82;;
20229;SDS011;12195;55.790;37.572;2023-07-13T02:52:18;4.50;;;1.82;;
20229;SDS011;12195;55.790;37.572;2023-07-13T02:55:03;3.30;;;2.00;;
20229;SDS011;12195;55.790;37.572;2023-07-13T02:57:36;2.10;;;1.90;;
20229;SDS011;12195;55.790;37.572;2023-07-13T03:00:20;4.62;;;1.70;;
20229;SDS011;12195;55.790;37.572;2023-07-13T03:02:53;2.25;;;1.85;;
20229;SDS011;12195;55.790;37.572;2023-07-13T03:05:45;6.37;;;2.50;;
20229;SDS011;12195;55.790;37.572;2023-07-13T03:08:32;2.15;;;1.60;;
20229;SDS011;12195;55.790;37.572;2023-07-13T03:11:06;4.72;;;1.95;;
20229;SDS011;12195;55.790;37.572;2023-07-13T03:13:42;5.22;;;1.90;;
20229;SDS011;12195;55.790;37.572;2023-07-13T03:16:26;4.55;;;1.67;;
20229;SDS011;12195;55.790;37.572;2023-07-13T03:19:01;11.30;;;2.80;;
20229;SDS011;12195;55.790;37.572;2023-07-13T03:21:45;4.22;;;1.75;;
20229;SDS011;12195;55.790;37.572;2023-07-13T03:24:18;9.15;;;1.95;;
20229;SDS011;12195;55.790;37.572;2023-07-13T03:27:03;3.05;;;1.72;;
20229;SDS011;12195;55.790;37.572;2023-07-13T03:29:38;2.60;;;1.50;;
20229;SDS011;12195;55.790;37.572;2023-07-13T03:32:21;3.70;;;1.30;;
20229;SDS011;12195;55.790;37.572;2023-07-13T03:34:54;6.25;;;1.90;;
20229;SDS011;12195;55.790;37.572;2023-07-13T03:37:38;2.87;;;1.65;;
20229;SDS011;12195;55.790;37.572;2023-07-13T03:40:23;4.03;;;2.12;;
20229;SDS011;12195;55.790;37.572;2023-07-13T03:42:56;4.10;;;2.10;;
20229;SDS011;12195;55.790;37.572;2023-07-13T03:45:40;6.12;;;1.95;;
20229;SDS011;12195;55.790;37.572;2023-07-13T03:48:13;9.03;;;2.10;;
20229;SDS011;12195;55.790;37.572;2023-07-13T03:50:55;4.30;;;1.62;;
20229;SDS011;12195;55.790;37.572;2023-07-13T03:53:29;3.80;;;1.67;;
20229;SDS011;12195;55.790;37.572;2023-07-13T03:56:14;3.87;;;1.60;;
20229;SDS011;12195;55.790;37.572;2023-07-13T03:58:50;3.08;;;1.75;;
20229;SDS011;12195;55.790;37.572;2023-07-13T04:01:33;4.58;;;1.67;;
20229;SDS011;12195;55.790;37.572;2023-07-13T04:04:06;5.53;;;2.67;;
20229;SDS011;12195;55.790;37.572;2023-07-13T04:06:49;4.03;;;1.62;;
20229;SDS011;12195;55.790;37.572;2023-07-13T04:11:55;2.92;;;1.85;;
20229;SDS011;12195;55.790;37.572;2023-07-13T04:14:39;2.67;;;1.90;;
20229;SDS011;12195;55.790;37.572;2023-07-13T04:17:13;3.33;;;2.20;;
20229;SDS011;12195;55.790;37.572;2023-07-13T04:19:57;4.03;;;1.50;;
20229;SDS011;12195;55.790;37.572;2023-07-13T04:22:31;5.50;;;2.05;;
20229;SDS011;12195;55.790;37.572;2023-07-13T04:25:04;2.55;;;1.22;;
20229;SDS011;12195;55.790;37.572;2023-07-13T04:27:37;3.27;;;1.98;;
20229;SDS011;12195;55.790;37.572;2023-07-13T04:30:20;2.85;;;1.72;;
20229;SDS011;12195;55.790;37.572;2023-07-13T04:32:53;2.12;;;1.52;;
20229;SDS011;12195;55.790;37.572;2023-07-13T04:35:36;6.20;;;2.33;;
20229;SDS011;12195;55.790;37.572;2023-07-13T04:38:21;3.17;;;1.52;;
20229;SDS011;12195;55.790;37.572;2023-07-13T04:43:28;3.02;;;1.40;;
20229;SDS011;12195;55.790;37.572;2023-07-13T04:46:14;1.45;;;1.35;;
20229;SDS011;12195;55.790;37.572;2023-07-13T04:49:01;2.92;;;1.67;;
20229;SDS011;12195;55.790;37.572;2023-07-13T04:51:35;3.03;;;1.90;;
20229;SDS011;12195;55.790;37.572;2023-07-13T04:54:19;5.03;;;1.70;;
20229;SDS011;12195;55.790;37.572;2023-07-13T04:56:52;4.20;;;2.00;;
20229;SDS011;12195;55.790;37.572;2023-07-13T04:59:36;11.53;;;2.08;;
20229;SDS011;12195;55.790;37.572;2023-07-13T05:02:09;1.52;;;1.27;;
20229;SDS011;12195;55.790;37.572;2023-07-13T05:04:54;5.20;;;1.80;;
20229;SDS011;12195;55.790;37.572;2023-07-13T05:07:38;8.80;;;2.10;;
20229;SDS011;12195;55.790;37.572;2023-07-13T05:10:23;2.87;;;1.87;;
20229;SDS011;12195;55.790;37.572;2023-07-13T05:12:57;2.85;;;1.60;;
20229;SDS011;12195;55.790;37.572;2023-07-13T05:15:41;5.10;;;1.77;;
20229;SDS011;12195;55.790;37.572;2023-07-13T05:18:14;2.75;;;1.40;;
20229;SDS011;12195;55.790;37.572;2023-07-13T05:20:58;5.80;;;1.52;;
20229;SDS011;12195;55.790;37.572;2023-07-13T05:23:33;5.92;;;1.77;;
20229;SDS011;12195;55.790;37.572;2023-07-13T05:26:17;4.00;;;2.10;;
20229;SDS011;12195;55.790;37.572;2023-07-13T05:28:51;4.80;;;1.97;;
20229;SDS011;12195;55.790;37.572;2023-07-13T05:31:33;4.95;;;2.12;;
20229;SDS011;12195;55.790;37.572;2023-07-13T05:34:08;5.80;;;1.80;;
20229;SDS011;12195;55.790;37.572;2023-07-13T05:36:51;3.67;;;1.65;;
20229;SDS011;12195;55.790;37.572;2023-07-13T05:39:25;3.27;;;1.70;;
20229;SDS011;12195;55.790;37.572;2023-07-13T05:42:10;1.62;;;1.40;;
20229;SDS011;12195;55.790;37.572;2023-07-13T05:44:55;3.55;;;1.65;;
20229;SDS011;12195;55.790;37.572;2023-07-13T05:47:38;3.58;;;1.32;;
20229;SDS011;12195;55.790;37.572;2023-07-13T05:50:12;3.30;;;1.67;;
20229;SDS011;12195;55.790;37.572;2023-07-13T05:52:57;3.45;;;1.57;;
20229;SDS011;12195;55.790;37.572;2023-07-13T05:55:44;3.05;;;1.60;;
20229;SDS011;12195;55.790;37.572;2023-07-13T05:58:17;5.10;;;1.95;;
20229;SDS011;12195;55.790;37.572;2023-07-13T06:01:04;2.15;;;1.77;;
20229;SDS011;12195;55.790;37.572;2023-07-13T06:03:49;1.62;;;1.40;;
20229;SDS011;12195;55.790;37.572;2023-07-13T06:06:23;4.35;;;1.50;;
20229;SDS011;12195;55.790;37.572;2023-07-13T06:09:07;2.95;;;1.70;;
20229;SDS011;12195;55.790;37.572;2023-07-13T06:11:40;5.58;;;1.67;;
20229;SDS011;12195;55.790;37.572;2023-07-13T06:14:23;8.08;;;2.02;;
20229;SDS011;12195;55.790;37.572;2023-07-13T06:16:57;3.47;;;1.50;;
20229;SDS011;12195;55.790;37.572;2023-07-13T06:19:30;4.35;;;1.42;;
20229;SDS011;12195;55.790;37.572;2023-07-13T06:22:03;5.17;;;2.30;;
20229;SDS011;12195;55.790;37.572;2023-07-13T06:24:47;6.37;;;1.75;;
20229;SDS011;12195;55.790;37.572;2023-07-13T06:27:20;3.98;;;1.65;;
20229;SDS011;12195;55.790;37.572;2023-07-13T06:30:03;3.55;;;1.65;;
20229;SDS011;12195;55.790;37.572;2023-07-13T06:32:36;5.33;;;2.20;;
20229;SDS011;12195;55.790;37.572;2023-07-13T06:35:23;2.75;;;1.77;;
20229;SDS011;12195;55.790;37.572;2023-07-13T06:37:57;3.25;;;1.70;;
20229;SDS011;12195;55.790;37.572;2023-07-13T06:40:41;2.37;;;1.30;;
20229;SDS011;12195;55.790;37.572;2023-07-13T06:43:15;6.72;;;1.82;;
20229;SDS011;12195;55.790;37.572;2023-07-13T06:45:59;3.10;;;1.75;;
20229;SDS011;12195;55.790;37.572;2023-07-13T06:48:33;3.35;;;1.70;;
20229;SDS011;12195;55.790;37.572;2023-07-13T06:51:19;3.20;;;1.80;;
20229;SDS011;12195;55.790;37.572;2023-07-13T06:53:52;4.78;;;1.65;;
20229;SDS011;12195;55.790;37.572;2023-07-13T06:56:38;3.70;;;1.72;;
20229;SDS011;12195;55.790;37.572;2023-07-13T06:59:20;6.80;;;1.85;;
20229;SDS011;12195;55.790;37.572;2023-07-13T07:02:06;5.75;;;2.17;;
20229;SDS011;12195;55.790;37.572;2023-07-13T07:04:42;4.20;;;1.72;;
20229;SDS011;12195;55.790;37.572;2023-07-13T07:07:26;4.30;;;2.12;;
20229;SDS011;12195;55.790;37.572;2023-07-13T07:09:59;5.58;;;1.95;;
20229;SDS011;12195;55.790;37.572;2023-07-13T07:12:44;4.70;;;2.22;;
20229;SDS011;12195;55.790;37.572;2023-07-13T07:15:30;7.60;;;2.30;;
20229;SDS011;12195;55.790;37.572;2023-07-13T07:18:17;2.22;;;1.70;;
20229;SDS011;12195;55.790;37.572;2023-07-13T07:20:51;7.95;;;2.20;;
20229;SDS011;12195;55.790;37.572;2023-07-13T07:23:24;3.33;;;1.80;;
20229;SDS011;12195;55.790;37.572;2023-07-13T07:26:08;4.03;;;1.52;;
20229;SDS011;12195;55.790;37.572;2023-07-13T07:28:42;5.90;;;1.80;;
20229;SDS011;12195;55.790;37.572;2023-07-13T07:31:28;4.03;;;1.87;;
20229;SDS011;12195;55.790;37.572;2023-07-13T07:34:15;4.72;;;1.90;;
20229;SDS011;12195;55.790;37.572;2023-07-13T07:36:59;5.47;;;1.60;;
20229;SDS011;12195;55.790;37.572;2023-07-13T07:39:34;5.22;;;2.27;;
20229;SDS011;12195;55.790;37.572;2023-07-13T07:42:19;2.00;;;1.50;;
20229;SDS011;12195;55.790;37.572;2023-07-13T07:44:52;5.92;;;1.90;;
20229;SDS011;12195;55.790;37.572;2023-07-13T07:47:37;2.10;;;1.35;;
20229;SDS011;12195;55.790;37.572;2023-07-13T07:50:10;4.97;;;2.20;;
20229;SDS011;12195;55.790;37.572;2023-07-13T07:52:54;3.55;;;1.75;;
20229;SDS011;12195;55.790;37.572;2023-07-13T07:55:27;3.12;;;1.30;;
20229;SDS011;12195;55.790;37.572;2023-07-13T07:58:14;3.40;;;1.87;;
20229;SDS011;12195;55.790;37.572;2023-07-13T08:01:06;4.53;;;1.72;;
20229;SDS011;12195;55.790;37.572;2023-07-13T08:03:50;5.20;;;2.00;;
20229;SDS011;12195;55.790;37.572;2023-07-13T08:06:25;7.95;;;2.62;;
20229;SDS011;12195;55.790;37.572;2023-07-13T08:09:11;4.35;;;2.00;;
20229;SDS011;12195;55.790;37.572;2023-07-13T08:11:56;2.30;;;1.42;;
20229;SDS011;12195;55.790;37.572;2023-07-13T08:14:31;2.85;;;1.80;;
20229;SDS011;12195;55.790;37.572;2023-07-13T08:17:17;5.97;;;2.47;;
20229;SDS011;12195;55.790;37.572;2023-07-13T08:19:50;7.08;;;2.20;;
20229;SDS011;12195;55.790;37.572;2023-07-13T08:22:35;26.87;;;6.10;;
20229;SDS011;12195;55.790;37.572;2023-07-13T08:25:19;6.92;;;2.00;;
20229;SDS011;12195;55.790;37.572;2023-07-13T08:27:54;9.35;;;2.05;;
20229;SDS011;12195;55.790;37.572;2023-07-13T08:30:36;15.63;;;3.98;;
20229;SDS011;12195;55.790;37.572;2023-07-13T08:33:10;6.30;;;2.50;;
20229;SDS011;12195;55.790;37.572;2023-07-13T08:35:45;6.12;;;1.87;;
20229;SDS011;12195;55.790;37.572;2023-07-13T08:38:17;4.97;;;1.60;;
20229;SDS011;12195;55.790;37.572;2023-07-13T08:41:02;6.55;;;1.92;;
20229;SDS011;12195;55.790;37.572;2023-07-13T08:43:36;4.60;;;2.05;;
20229;SDS011;12195;55.790;37.572;2023-07-13T08:49:03;3.80;;;1.70;;
20229;SDS011;12195;55.790;37.572;2023-07-13T08:52:33;4.80;;;1.70;;
20229;SDS011;12195;55.790;37.572;2023-07-13T08:58:05;2.83;;;1.95;;
20229;SDS011;12195;55.790;37.572;2023-07-13T09:00:56;4.30;;;1.80;;
20229;SDS011;12195;55.790;37.572;2023-07-13T09:03:30;4.87;;;1.82;;
20229;SDS011;12195;55.790;37.572;2023-07-13T09:06:04;6.10;;;1.90;;
20229;SDS011;12195;55.790;37.572;2023-07-13T09:08:54;10.53;;;2.87;;
20229;SDS011;12195;55.790;37.572;2023-07-13T09:11:32;4.92;;;1.98;;
20229;SDS011;12195;55.790;37.572;2023-07-13T09:14:33;3.87;;;1.95;;
20229;SDS011;12195;55.790;37.572;2023-07-13T09:17:16;4.70;;;1.90;;
20229;SDS011;12195;55.790;37.572;2023-07-13T09:22:59;3.52;;;2.22;;
20229;SDS011;12195;55.790;37.572;2023-07-13T09:25:35;3.95;;;1.90;;
20229;SDS011;12195;55.790;37.572;2023-07-13T09:28:24;8.15;;;2.45;;
20229;SDS011;12195;55.790;37.572;2023-07-13T09:34:11;6.78;;;2.00;;
20229;SDS011;12195;55.790;37.572;2023-07-13T09:36:57;6.00;;;2.50;;
20229;SDS011;12195;55.790;37.572;2023-07-13T09:39:33;4.33;;;2.75;;
20229;SDS011;12195;55.790;37.572;2023-07-13T09:42:25;6.97;;;2.40;;
20229;SDS011;12195;55.790;37.572;2023-07-13T09:45:00;3.60;;;2.30;;
20229;SDS011;12195;55.790;37.572;2023-07-13T09:47:43;5.60;;;2.35;;
20229;SDS011;12195;55.790;37.572;2023-07-13T09:50:16;10.08;;;3.70;;
20229;SDS011;12195;55.790;37.572;2023-07-13T09:53:00;6.17;;;2.67;;
20229;SDS011;12195;55.790;37.572;2023-07-13T09:55:34;4.80;;;2.37;;
20229;SDS011;12195;55.790;37.572;2023-07-13T09:58:23;5.75;;;2.75;;
20229;SDS011;12195;55.790;37.572;2023-07-13T10:00:59;7.00;;;3.50;;
20229;SDS011;12195;55.790;37.572;2023-07-13T10:03:52;7.87;;;2.75;;
20229;SDS011;12195;55.790;37.572;2023-07-13T10:06:26;8.20;;;3.20;;
20229;SDS011;12195;55.790;37.572;2023-07-13T10:09:28;5.15;;;2.47;;
20229;SDS011;12195;55.790;37.572;2023-07-13T10:12:16;11.15;;;3.40;;
20229;SDS011;12195;55.790;37.572;2023-07-13T10:14:48;5.42;;;2.80;;
20229;SDS011;12195;55.790;37.572;2023-07-13T10:17:36;5.97;;;3.25;;
20229;SDS011;12195;55.790;37.572;2023-07-13T10:20:11;10.60;;;3.00;;
20229;SDS011;12195;55.790;37.572;2023-07-13T10:22:58;5.42;;;2.72;;
20229;SDS011;12195;55.790;37.572;2023-07-13T10:25:43;5.22;;;2.80;;
20229;SDS011;12195;55.790;37.572;2023-07-13T10:31:10;7.70;;;3.20;;
20229;SDS011;12195;55.790;37.572;2023-07-13T10:33:45;6.72;;;3.22;;
20229;SDS011;12195;55.790;37.572;2023-07-13T10:36:33;6.75;;;2.90;;
20229;SDS011;12195;55.790;37.572;2023-07-13T10:39:10;9.50;;;2.95;;
20229;SDS011;12195;55.790;37.572;2023-07-13T10:41:55;10.38;;;3.35;;
20229;SDS011;12195;55.790;37.572;2023-07-13T10:44:33;6.72;;;2.83;;
20229;SDS011;12195;55.790;37.572;2023-07-13T10:47:16;8.48;;;3.45;;
20229;SDS011;12195;55.790;37.572;2023-07-13T10:49:50;6.80;;;2.98;;
20229;SDS011;12195;55.790;37.572;2023-07-13T10:52:46;12.00;;;3.35;;
20229;SDS011;12195;55.790;37.572;2023-07-13T10:58:13;5.87;;;2.22;;
20229;SDS011;12195;55.790;37.572;2023-07-13T11:01:12;11.45;;;2.70;;
20229;SDS011;12195;55.790;37.572;2023-07-13T11:04:01;6.28;;;2.17;;
20229;SDS011;12195;55.790;37.572;2023-07-13T11:06:38;4.92;;;2.20;;
20229;SDS011;12195;55.790;37.572;2023-07-13T11:09:34;5.67;;;2.45;;
20229;SDS011;12195;55.790;37.572;2023-07-13T11:17:51;5.85;;;2.33;;
20229;SDS011;12195;55.790;37.572;2023-07-13T11:20:42;4.25;;;2.72;;
20229;SDS011;12195;55.790;37.572;2023-07-13T11:26:03;10.03;;;3.30;;
20229;SDS011;12195;55.790;37.572;2023-07-13T11:28:35;6.05;;;2.42;;
20229;SDS011;12195;55.790;37.572;2023-07-13T11:31:22;5.08;;;2.70;;
20229;SDS011;12195;55.790;37.572;2023-07-13T11:33:56;6.50;;;2.65;;
20229;SDS011;12195;55.790;37.572;2023-07-13T11:36:44;7.10;;;2.90;;
20229;SDS011;12195;55.790;37.572;2023-07-13T11:39:31;11.03;;;3.58;;
20229;SDS011;12195;55.790;37.572;2023-07-13T11:42:11;5.37;;;2.55;;
20229;SDS011;12195;55.790;37.572;2023-07-13T11:44:58;8.78;;;3.08;;
20229;SDS011;12195;55.790;37.572;2023-07-13T11:47:34;12.28;;;4.00;;
20229;SDS011;12195;55.790;37.572;2023-07-13T11:50:17;7.42;;;3.35;;
20229;SDS011;12195;55.790;37.572;2023-07-13T11:53:02;4.87;;;2.98;;
20229;SDS011;12195;55.790;37.572;2023-07-13T11:55:34;5.45;;;2.92;;
20229;SDS011;12195;55.790;37.572;2023-07-13T11:58:23;8.13;;;3.35;;
20229;SDS011;12195;55.790;37.572;2023-07-13T12:01:06;19.73;;;4.50;;
20229;SDS011;12195;55.790;37.572;2023-07-13T12:04:05;6.67;;;3.10;;
20229;SDS011;12195;55.790;37.572;2023-07-13T12:06:54;11.50;;;2.92;;
20229;SDS011;12195;55.790;37.572;2023-07-13T12:09:30;11.78;;;3.50;;
20229;SDS011;12195;55.790;37.572;2023-07-13T12:12:20;10.32;;;3.17;;
20229;SDS011;12195;55.790;37.572;2023-07-13T12:15:07;8.05;;;3.08;;
20229;SDS011;12195;55.790;37.572;2023-07-13T12:17:40;9.18;;;3.22;;
20229;SDS011;12195;55.790;37.572;2023-07-13T12:20:27;4.25;;;2.27;;
20229;SDS011;12195;55.790;37.572;2023-07-13T12:23:29;7.97;;;2.98;;
20229;SDS011;12195;55.790;37.572;2023-07-13T12:26:04;7.15;;;2.70;;
20229;SDS011;12195;55.790;37.572;2023-07-13T12:28:52;10.00;;;3.00;;
20229;SDS011;12195;55.790;37.572;2023-07-13T12:34:23;5.87;;;2.80;;
20229;SDS011;12195;55.790;37.572;2023-07-13T12:37:02;10.00;;;2.75;;
20229;SDS011;12195;55.790;37.572;2023-07-13T12:39:45;9.15;;;3.90;;
20229;SDS011;12195;55.790;37.572;2023-07-13T12:42:25;7.65;;;3.58;;
20229;SDS011;12195;55.790;37.572;2023-07-13T12:45:17;6.85;;;2.77;;
20229;SDS011;12195;55.790;37.572;2023-07-13T12:48:10;10.48;;;3.52;;
20229;SDS011;12195;55.790;37.572;2023-07-13T12:50:46;4.95;;;3.72;;
20229;SDS011;12195;55.790;37.572;2023-07-13T12:53:55;8.83;;;3.67;;
20229;SDS011;12195;55.790;37.572;2023-07-13T12:56:41;5.15;;;2.90;;
20229;SDS011;12195;55.790;37.572;2023-07-13T12:59:21;11.73;;;3.73;;
20229;SDS011;12195;55.790;37.572;2023-07-13T13:02:01;5.33;;;2.60;;
20229;SDS011;12195;55.790;37.572;2023-07-13T13:04:34;7.10;;;3.02;;
20229;SDS011;12195;55.790;37.572;2023-07-13T13:07:23;7.87;;;2.60;;
20229;SDS011;12195;55.790;37.572;2023-07-13T13:09:55;8.28;;;2.20;;
20229;SDS011;12195;55.790;37.572;2023-07-13T13:12:40;7.17;;;2.72;;
20229;SDS011;12195;55.790;37.572;2023-07-13T13:15:16;7.53;;;4.15;;
20229;SDS011;12195;55.790;37.572;2023-07-13T13:18:00;6.20;;;2.70;;
20229;SDS011;12195;55.790;37.572;2023-07-13T13:20:57;7.33;;;3.55;;
20229;SDS011;12195;55.790;37.572;2023-07-13T13:23:30;9.88;;;3.10;;
20229;SDS011;12195;55.790;37.572;2023-07-13T13:26:14;10.35;;;3.12;;
20229;SDS011;12195;55.790;37.572;2023-07-13T13:31:33;9.35;;;2.90;;
20229;SDS011;12195;55.790;37.572;2023-07-13T13:34:12;8.15;;;3.65;;
20229;SDS011;12195;55.790;37.572;2023-07-13T13:36:52;9.48;;;3.42;;
20229;SDS011;12195;55.790;37.572;2023-07-13T13:39:34;13.18;;;4.37;;
20229;SDS011;12195;55.790;37.572;2023-07-13T13:42:23;6.85;;;3.17;;
20229;SDS011;12195;55.790;37.572;2023-07-13T13:45:00;9.43;;;2.70;;
20229;SDS011;12195;55.790;37.572;2023-07-13T13:47:44;5.10;;;2.62;;
20229;SDS011;12195;55.790;37.572;2023-07-13T13:50:22;4.80;;;2.75;;
20229;SDS011;12195;55.790;37.572;2023-07-13T13:53:05;8.30;;;3.33;;
20229;SDS011;12195;55.790;37.572;2023-07-13T13:58:11;4.78;;;2.90;;
20229;SDS011;12195;55.790;37.572;2023-07-13T14:00:44;5.47;;;2.58;;
20229;SDS011;12195;55.790;37.572;2023-07-13T14:03:18;5.62;;;2.37;;
20229;SDS011;12195;55.790;37.572;2023-07-13T14:06:13;12.50;;;3.27;;
20229;SDS011;12195;55.790;37.572;2023-07-13T14:08:46;12.37;;;3.05;;
20229;SDS011;12195;55.790;37.572;2023-07-13T14:11:29;5.50;;;2.58;;
20229;SDS011;12195;55.790;37.572;2023-07-13T14:14:03;5.80;;;2.27;;
20229;SDS011;12195;55.790;37.572;2023-07-13T14:16:48;2.83;;;2.02;;
20229;SDS011;12195;55.790;37.572;2023-07-13T14:19:27;13.20;;;3.83;;
20229;SDS011;12195;55.790;37.572;2023-07-13T14:22:13;16.20;;;4.40;;
20229;SDS011;12195;55.790;37.572;2023-07-13T14:24:56;8.18;;;4.12;;
20229;SDS011;12195;55.790;37.572;2023-07-13T14:27:41;9.15;;;3.25;;
20229;SDS011;12195;55.790;37.572;2023-07-13T14:30:25;6.58;;;3.33;;
20229;SDS011;12195;55.790;37.572;2023-07-13T14:33:11;6.95;;;3.60;;
20229;SDS011;12195;55.790;37.572;2023-07-13T14:35:56;7.45;;;3.25;;
20229;SDS011;12195;55.790;37.572;2023-07-13T14:38:32;5.65;;;2.22;;
20229;SDS011;12195;55.790;37.572;2023-07-13T14:41:04;4.62;;;2.87;;
20229;SDS011;12195;55.790;37.572;2023-07-13T14:43:50;5.65;;;3.58;;
20229;SDS011;12195;55.790;37.572;2023-07-13T14:46:31;7.83;;;2.90;;
20229;SDS011;12195;55.790;37.572;2023-07-13T14:51:58;8.23;;;2.92;;
20229;SDS011;12195;55.790;37.572;2023-07-13T14:54:44;8.88;;;3.87;;
20229;SDS011;12195;55.790;37.572;2023-07-13T14:57:17;8.95;;;2.67;;
20229;SDS011;12195;55.790;37.572;2023-07-13T15:00:04;4.75;;;2.40;;
20229;SDS011;12195;55.790;37.572;2023-07-13T15:02:52;6.03;;;3.08;;
20229;SDS011;12195;55.790;37.572;2023-07-13T15:05:29;6.10;;;2.58;;
20229;SDS011;12195;55.790;37.572;2023-07-13T15:08:04;7.47;;;3.17;;
20229;SDS011;12195;55.790;37.572;2023-07-13T15:10:37;9.20;;;2.70;;
20229;SDS011;12195;55.790;37.572;2023-07-13T15:13:20;7.40;;;3.20;;
20229;SDS011;12195;55.790;37.572;2023-07-13T15:15:56;7.55;;;2.98;;
20229;SDS011;12195;55.790;37.572;2023-07-13T15:18:41;7.03;;;4.15;;
20229;SDS011;12195;55.790;37.572;2023-07-13T15:21:26;4.87;;;3.37;;
20229;SDS011;12195;55.790;37.572;2023-07-13T15:24:11;11.20;;;4.12;;
20229;SDS011;12195;55.790;37.572;2023-07-13T15:26:44;9.00;;;3.22;;
20229;SDS011;12195;55.790;37.572;2023-07-13T15:29:31;12.53;;;3.08;;
20229;SDS011;12195;55.790;37.572;2023-07-13T15:32:04;9.90;;;3.02;;
20229;SDS011;12195;55.790;37.572;2023-07-13T15:34:51;5.80;;;2.83;;
20229;SDS011;12195;55.790;37.572;2023-07-13T15:37:24;5.97;;;2.35;;
20229;SDS011;12195;55.790;37.572;2023-07-13T15:40:09;6.17;;;2.70;;
20229;SDS011;12195;55.790;37.572;2023-07-13T15:42:44;10.95;;;3.10;;
20229;SDS011;12195;55.790;37.572;2023-07-13T15:45:27;5.90;;;3.85;;
20229;SDS011;12195;55.790;37.572;2023-07-13T15:48:00;6.92;;;3.85;;
20229;SDS011;12195;55.790;37.572;2023-07-13T15:50:44;9.75;;;3.77;;
20229;SDS011;12195;55.790;37.572;2023-07-13T15:53:24;8.03;;;3.55;;
20229;SDS011;12195;55.790;37.572;2023-07-13T15:56:18;7.22;;;3.17;;
20229;SDS011;12195;55.790;37.572;2023-07-13T15:59:02;5.30;;;3.00;;
20229;SDS011;12195;55.790;37.572;2023-07-13T16:01:45;6.10;;;3.00;;
20229;SDS011;12195;55.790;37.572;2023-07-13T16:04:20;6.25;;;3.60;;
20229;SDS011;12195;55.790;37.572;2023-07-13T16:07:04;3.95;;;2.80;;
20229;SDS011;12195;55.790;37.572;2023-07-13T16:09:48;11.33;;;4.10;;
20229;SDS011;12195;55.790;37.572;2023-07-13T16:12:21;10.20;;;4.22;;
20229;SDS011;12195;55.790;37.572;2023-07-13T16:15:05;5.20;;;3.40;;
20229;SDS011;12195;55.790;37.572;2023-07-13T16:17:49;9.73;;;5.00;;
20229;SDS011;12195;55.790;37.572;2023-07-13T16:20:23;9.08;;;3.72;;
20229;SDS011;12195;55.790;37.572;2023-07-13T16:23:07;8.70;;;3.22;;
20229;SDS011;12195;55.790;37.572;2023-07-13T16:25:44;8.00;;;3.00;;
20229;SDS011;12195;55.790;37.572;2023-07-13T16:28:28;8.30;;;3.50;;
20229;SDS011;12195;55.790;37.572;2023-07-13T16:31:01;6.35;;;3.60;;
20229;SDS011;12195;55.790;37.572;2023-07-13T16:33:46;7.40;;;3.75;;
20229;SDS011;12195;55.790;37.572;2023-07-13T16:36:31;6.80;;;3.08;;